sensor_id;sensor_type;location;lat;lon;timestamp;P1;durP1;ratioP1;P2;durP2;ratioP2
23988;SDS011;12202;52.136;5.592;2023-03-24T00:00:44;14.70;;;5.75;;
23988;SDS011;12202;52.136;5.592;2023-03-24T00:03:10;23.23;;;6.20;;
23988;SDS011;12202;52.136;5.592;2023-03-24T00:05:36;19.75;;;6.97;;
23988;SDS011;12202;52.136;5.592;2023-03-24T00:08:04;16.13;;;6.10;;
23988;SDS011;12202;52.136;5.592;2023-03-24T00:10:30;13.77;;;5.95;;
23988;SDS011;12202;52.136;5.592;2023-03-24T00:12:58;23.85;;;5.93;;
23988;SDS011;12202;52.136;5.592;2023-03-24T00:15:25;18.20;;;7.32;;
23988;SDS011;12202;52.136;5.592;2023-03-24T00:17:51;13.32;;;6.15;;
23988;SDS011;12202;52.136;5.592;2023-03-24T00:20:20;14.65;;;5.43;;
23988;SDS011;12202;52.136;5.592;2023-03-24T00:22:47;16.85;;;5.88;;
23988;SDS011;12202;52.136;5.592;2023-03-24T00:25:18;21.55;;;7.18;;
23988;SDS011;12202;52.136;5.592;2023-03-24T00:27:44;12.82;;;5.95;;
23988;SDS011;12202;52.136;5.592;2023-03-24T00:30:13;14.52;;;6.28;;
23988;SDS011;12202;52.136;5.592;2023-03-24T00:32:39;16.02;;;5.93;;
23988;SDS011;12202;52.136;5.592;2023-03-24T00:35:06;16.00;;;6.25;;
23988;SDS011;12202;52.136;5.592;2023-03-24T00:37:33;15.38;;;6.55;;
23988;SDS011;12202;52.136;5.592;2023-03-24T00:40:01;18.83;;;6.60;;
23988;SDS011;12202;52.136;5.592;2023-03-24T00:42:31;15.70;;;6.20;;
23988;SDS011;12202;52.136;5.592;2023-03-24T00:44:57;12.32;;;5.82;;
23988;SDS011;12202;52.136;5.592;2023-03-24T00:47:23;16.85;;;6.38;;
23988;SDS011;12202;52.136;5.592;2023-03-24T00:49:50;10.43;;;6.05;;
23988;SDS011;12202;52.136;5.592;2023-03-24T00:52:18;10.48;;;6.28;;
23988;SDS011;12202;52.136;5.592;2023-03-24T00:54:47;15.57;;;6.72;;
23988;SDS011;12202;52.136;5.592;2023-03-24T00:57:14;15.85;;;5.80;;
23988;SDS011;12202;52.136;5.592;2023-03-24T00:59:47;19.38;;;7.97;;
23988;SDS011;12202;52.136;5.592;2023-03-24T01:02:16;12.10;;;5.32;;
23988;SDS011;12202;52.136;5.592;2023-03-24T01:04:46;10.60;;;5.88;;
23988;SDS011;12202;52.136;5.592;2023-03-24T01:07:13;15.77;;;6.00;;
23988;SDS011;12202;52.136;5.592;2023-03-24T01:09:42;12.35;;;5.80;;
23988;SDS011;12202;52.136;5.592;2023-03-24T01:12:08;15.40;;;6.60;;
23988;SDS011;12202;52.136;5.592;2023-03-24T01:14:34;13.32;;;6.05;;
23988;SDS011;12202;52.136;5.592;2023-03-24T01:17:00;18.40;;;6.80;;
23988;SDS011;12202;52.136;5.592;2023-03-24T01:19:27;10.70;;;5.65;;
23988;SDS011;12202;52.136;5.592;2023-03-24T01:21:53;12.95;;;6.05;;
23988;SDS011;12202;52.136;5.592;2023-03-24T01:24:37;13.30;;;5.90;;
23988;SDS011;12202;52.136;5.592;2023-03-24T01:27:03;19.10;;;6.45;;
23988;SDS011;12202;52.136;5.592;2023-03-24T01:29:29;12.68;;;6.15;;
23988;SDS011;12202;52.136;5.592;2023-03-24T01:31:55;12.40;;;6.45;;
23988;SDS011;12202;52.136;5.592;2023-03-24T01:34:21;13.15;;;6.30;;
23988;SDS011;12202;52.136;5.592;2023-03-24T01:36:49;10.70;;;6.32;;
23988;SDS011;12202;52.136;5.592;2023-03-24T01:39:15;12.68;;;6.50;;
23988;SDS011;12202;52.136;5.592;2023-03-24T01:41:40;10.82;;;6.07;;
23988;SDS011;12202;52.136;5.592;2023-03-24T01:44:23;13.90;;;6.47;;
23988;SDS011;12202;52.136;5.592;2023-03-24T01:46:50;13.52;;;6.45;;
23988;SDS011;12202;52.136;5.592;2023-03-24T01:49:16;9.57;;;6.10;;
23988;SDS011;12202;52.136;5.592;2023-03-24T01:51:43;10.73;;;6.03;;
23988;SDS011;12202;52.136;5.592;2023-03-24T01:54:21;11.73;;;6.05;;
23988;SDS011;12202;52.136;5.592;2023-03-24T01:56:49;9.88;;;5.40;;
23988;SDS011;12202;52.136;5.592;2023-03-24T01:59:20;12.98;;;5.72;;
23988;SDS011;12202;52.136;5.592;2023-03-24T02:01:47;10.85;;;6.70;;
23988;SDS011;12202;52.136;5.592;2023-03-24T02:04:13;14.88;;;6.55;;
23988;SDS011;12202;52.136;5.592;2023-03-24T02:06:43;8.57;;;6.35;;
23988;SDS011;12202;52.136;5.592;2023-03-24T02:09:16;8.57;;;6.35;;
23988;SDS011;12202;52.136;5.592;2023-03-24T02:11:46;14.02;;;6.10;;
23988;SDS011;12202;52.136;5.592;2023-03-24T02:14:12;11.18;;;6.63;;
23988;SDS011;12202;52.136;5.592;2023-03-24T02:19:12;14.65;;;6.40;;
23988;SDS011;12202;52.136;5.592;2023-03-24T02:21:58;10.50;;;6.30;;
23988;SDS011;12202;52.136;5.592;2023-03-24T02:29:46;11.90;;;6.47;;
23988;SDS011;12202;52.136;5.592;2023-03-24T02:37:34;12.48;;;6.60;;
23988;SDS011;12202;52.136;5.592;2023-03-24T02:40:25;14.35;;;6.72;;
23988;SDS011;12202;52.136;5.592;2023-03-24T02:48:05;15.43;;;8.23;;
23988;SDS011;12202;52.136;5.592;2023-03-24T02:50:41;11.27;;;5.20;;
23988;SDS011;12202;52.136;5.592;2023-03-24T02:53:12;7.95;;;5.75;;
23988;SDS011;12202;52.136;5.592;2023-03-24T02:58:27;9.48;;;5.78;;
23988;SDS011;12202;52.136;5.592;2023-03-24T03:01:01;15.15;;;6.30;;
23988;SDS011;12202;52.136;5.592;2023-03-24T03:03:39;7.68;;;5.43;;
23988;SDS011;12202;52.136;5.592;2023-03-24T03:06:20;9.38;;;5.35;;
23988;SDS011;12202;52.136;5.592;2023-03-24T03:08:48;9.40;;;4.60;;
23988;SDS011;12202;52.136;5.592;2023-03-24T03:11:15;6.88;;;4.75;;
23988;SDS011;12202;52.136;5.592;2023-03-24T03:13:43;7.63;;;5.03;;
23988;SDS011;12202;52.136;5.592;2023-03-24T03:16:14;9.07;;;4.22;;
23988;SDS011;12202;52.136;5.592;2023-03-24T03:18:44;7.90;;;3.80;;
23988;SDS011;12202;52.136;5.592;2023-03-24T03:21:14;10.20;;;3.20;;
23988;SDS011;12202;52.136;5.592;2023-03-24T03:23:46;10.00;;;2.67;;
23988;SDS011;12202;52.136;5.592;2023-03-24T03:26:13;7.32;;;2.63;;
23988;SDS011;12202;52.136;5.592;2023-03-24T03:28:41;12.27;;;1.70;;
23988;SDS011;12202;52.136;5.592;2023-03-24T03:31:13;12.35;;;2.03;;
23988;SDS011;12202;52.136;5.592;2023-03-24T03:33:57;8.43;;;1.73;;
23988;SDS011;12202;52.136;5.592;2023-03-24T03:36:31;4.68;;;2.00;;
23988;SDS011;12202;52.136;5.592;2023-03-24T03:39:02;7.10;;;2.03;;
23988;SDS011;12202;52.136;5.592;2023-03-24T03:41:32;7.13;;;2.20;;
23988;SDS011;12202;52.136;5.592;2023-03-24T03:43:58;8.35;;;1.73;;
23988;SDS011;12202;52.136;5.592;2023-03-24T03:46:25;7.90;;;1.95;;
23988;SDS011;12202;52.136;5.592;2023-03-24T03:48:51;7.13;;;2.00;;
23988;SDS011;12202;52.136;5.592;2023-03-24T03:51:17;15.05;;;2.55;;
23988;SDS011;12202;52.136;5.592;2023-03-24T03:56:10;9.73;;;2.15;;
23988;SDS011;12202;52.136;5.592;2023-03-24T03:58:36;14.73;;;2.65;;
23988;SDS011;12202;52.136;5.592;2023-03-24T04:01:03;6.85;;;2.20;;
23988;SDS011;12202;52.136;5.592;2023-03-24T04:06:02;14.13;;;2.92;;
23988;SDS011;12202;52.136;5.592;2023-03-24T04:08:44;9.95;;;3.05;;
23988;SDS011;12202;52.136;5.592;2023-03-24T04:21:21;13.73;;;4.13;;
23988;SDS011;12202;52.136;5.592;2023-03-24T04:24:07;18.00;;;3.92;;
23988;SDS011;12202;52.136;5.592;2023-03-24T04:26:42;19.38;;;4.03;;
23988;SDS011;12202;52.136;5.592;2023-03-24T04:29:19;15.02;;;3.70;;
23988;SDS011;12202;52.136;5.592;2023-03-24T04:31:52;19.08;;;4.38;;
23988;SDS011;12202;52.136;5.592;2023-03-24T04:34:26;13.90;;;3.72;;
23988;SDS011;12202;52.136;5.592;2023-03-24T04:36:54;17.13;;;4.35;;
23988;SDS011;12202;52.136;5.592;2023-03-24T04:39:21;21.83;;;4.22;;
23988;SDS011;12202;52.136;5.592;2023-03-24T04:41:52;19.23;;;4.65;;
23988;SDS011;12202;52.136;5.592;2023-03-24T04:44:18;21.67;;;5.97;;
23988;SDS011;12202;52.136;5.592;2023-03-24T04:46:48;28.15;;;7.25;;
23988;SDS011;12202;52.136;5.592;2023-03-24T04:49:14;20.70;;;5.57;;
23988;SDS011;12202;52.136;5.592;2023-03-24T04:51:41;19.45;;;5.50;;
23988;SDS011;12202;52.136;5.592;2023-03-24T04:54:07;24.17;;;5.10;;
23988;SDS011;12202;52.136;5.592;2023-03-24T04:59:00;36.45;;;7.18;;
23988;SDS011;12202;52.136;5.592;2023-03-24T05:01:26;28.58;;;6.30;;
23988;SDS011;12202;52.136;5.592;2023-03-24T05:03:54;27.05;;;6.82;;
23988;SDS011;12202;52.136;5.592;2023-03-24T05:06:20;34.13;;;5.38;;
23988;SDS011;12202;52.136;5.592;2023-03-24T05:08:46;30.27;;;6.13;;
23988;SDS011;12202;52.136;5.592;2023-03-24T05:11:13;30.50;;;5.40;;
23988;SDS011;12202;52.136;5.592;2023-03-24T05:13:38;34.45;;;5.30;;
23988;SDS011;12202;52.136;5.592;2023-03-24T05:16:05;39.03;;;5.55;;
23988;SDS011;12202;52.136;5.592;2023-03-24T05:18:31;28.52;;;5.57;;
23988;SDS011;12202;52.136;5.592;2023-03-24T05:20:57;40.20;;;6.93;;
23988;SDS011;12202;52.136;5.592;2023-03-24T05:23:24;27.85;;;4.65;;
23988;SDS011;12202;52.136;5.592;2023-03-24T05:25:50;28.67;;;4.63;;
23988;SDS011;12202;52.136;5.592;2023-03-24T05:28:16;40.60;;;5.22;;
23988;SDS011;12202;52.136;5.592;2023-03-24T05:30:42;34.55;;;4.22;;
23988;SDS011;12202;52.136;5.592;2023-03-24T05:33:08;43.28;;;5.30;;
23988;SDS011;12202;52.136;5.592;2023-03-24T05:35:34;37.42;;;5.07;;
23988;SDS011;12202;52.136;5.592;2023-03-24T05:38:00;35.78;;;5.80;;
23988;SDS011;12202;52.136;5.592;2023-03-24T05:40:26;37.20;;;4.82;;
23988;SDS011;12202;52.136;5.592;2023-03-24T05:42:52;32.88;;;4.93;;
23988;SDS011;12202;52.136;5.592;2023-03-24T05:45:18;41.13;;;5.05;;
23988;SDS011;12202;52.136;5.592;2023-03-24T05:47:45;41.63;;;5.05;;
23988;SDS011;12202;52.136;5.592;2023-03-24T05:50:11;34.20;;;4.75;;
23988;SDS011;12202;52.136;5.592;2023-03-24T05:52:37;36.70;;;6.45;;
23988;SDS011;12202;52.136;5.592;2023-03-24T05:55:03;44.03;;;6.35;;
23988;SDS011;12202;52.136;5.592;2023-03-24T05:57:29;39.63;;;5.18;;
23988;SDS011;12202;52.136;5.592;2023-03-24T05:59:55;48.65;;;7.60;;
23988;SDS011;12202;52.136;5.592;2023-03-24T06:02:21;38.83;;;6.35;;
23988;SDS011;12202;52.136;5.592;2023-03-24T06:04:48;35.63;;;6.78;;
23988;SDS011;12202;52.136;5.592;2023-03-24T06:07:15;39.25;;;4.57;;
23988;SDS011;12202;52.136;5.592;2023-03-24T06:09:42;45.75;;;6.93;;
23988;SDS011;12202;52.136;5.592;2023-03-24T06:12:11;39.15;;;6.60;;
23988;SDS011;12202;52.136;5.592;2023-03-24T06:14:39;30.05;;;5.28;;
23988;SDS011;12202;52.136;5.592;2023-03-24T06:17:08;34.85;;;6.82;;
23988;SDS011;12202;52.136;5.592;2023-03-24T06:19:38;35.55;;;5.97;;
23988;SDS011;12202;52.136;5.592;2023-03-24T06:22:12;41.45;;;6.70;;
23988;SDS011;12202;52.136;5.592;2023-03-24T06:24:38;29.60;;;4.88;;
23988;SDS011;12202;52.136;5.592;2023-03-24T06:27:04;33.47;;;5.85;;
23988;SDS011;12202;52.136;5.592;2023-03-24T06:29:32;28.50;;;6.47;;
23988;SDS011;12202;52.136;5.592;2023-03-24T06:31:58;47.70;;;7.45;;
23988;SDS011;12202;52.136;5.592;2023-03-24T06:34:24;37.00;;;6.82;;
23988;SDS011;12202;52.136;5.592;2023-03-24T06:36:50;32.83;;;6.88;;
23988;SDS011;12202;52.136;5.592;2023-03-24T06:39:19;34.45;;;6.50;;
23988;SDS011;12202;52.136;5.592;2023-03-24T06:41:46;25.83;;;6.55;;
23988;SDS011;12202;52.136;5.592;2023-03-24T06:44:12;32.70;;;7.32;;
23988;SDS011;12202;52.136;5.592;2023-03-24T06:46:38;32.70;;;5.97;;
23988;SDS011;12202;52.136;5.592;2023-03-24T06:49:07;35.33;;;7.55;;
23988;SDS011;12202;52.136;5.592;2023-03-24T06:51:33;42.58;;;6.47;;
23988;SDS011;12202;52.136;5.592;2023-03-24T06:53:59;38.70;;;7.43;;
23988;SDS011;12202;52.136;5.592;2023-03-24T06:56:25;21.90;;;5.70;;
23988;SDS011;12202;52.136;5.592;2023-03-24T06:58:51;41.05;;;7.07;;
23988;SDS011;12202;52.136;5.592;2023-03-24T07:01:17;25.02;;;6.07;;
23988;SDS011;12202;52.136;5.592;2023-03-24T07:03:44;32.92;;;6.65;;
23988;SDS011;12202;52.136;5.592;2023-03-24T07:06:10;25.83;;;6.57;;
23988;SDS011;12202;52.136;5.592;2023-03-24T07:08:36;42.63;;;6.57;;
23988;SDS011;12202;52.136;5.592;2023-03-24T07:11:02;29.15;;;5.95;;
23988;SDS011;12202;52.136;5.592;2023-03-24T07:13:30;30.52;;;8.93;;
23988;SDS011;12202;52.136;5.592;2023-03-24T07:15:55;36.33;;;7.38;;
23988;SDS011;12202;52.136;5.592;2023-03-24T07:18:21;30.52;;;6.07;;
23988;SDS011;12202;52.136;5.592;2023-03-24T07:20:47;22.17;;;5.57;;
23988;SDS011;12202;52.136;5.592;2023-03-24T07:23:13;33.55;;;6.82;;
23988;SDS011;12202;52.136;5.592;2023-03-24T07:25:40;21.15;;;6.05;;
23988;SDS011;12202;52.136;5.592;2023-03-24T07:28:06;43.60;;;6.47;;
23988;SDS011;12202;52.136;5.592;2023-03-24T07:30:32;29.35;;;6.30;;
23988;SDS011;12202;52.136;5.592;2023-03-24T07:33:05;32.05;;;7.10;;
23988;SDS011;12202;52.136;5.592;2023-03-24T07:35:32;26.55;;;5.40;;
23988;SDS011;12202;52.136;5.592;2023-03-24T07:37:58;23.35;;;5.88;;
23988;SDS011;12202;52.136;5.592;2023-03-24T07:40:24;39.30;;;7.60;;
23988;SDS011;12202;52.136;5.592;2023-03-24T07:42:50;26.92;;;6.35;;
23988;SDS011;12202;52.136;5.592;2023-03-24T07:45:16;26.23;;;7.25;;
23988;SDS011;12202;52.136;5.592;2023-03-24T07:47:43;28.73;;;6.72;;
23988;SDS011;12202;52.136;5.592;2023-03-24T07:50:10;30.25;;;6.22;;
23988;SDS011;12202;52.136;5.592;2023-03-24T07:52:37;23.85;;;7.30;;
23988;SDS011;12202;52.136;5.592;2023-03-24T07:55:04;25.58;;;6.78;;
23988;SDS011;12202;52.136;5.592;2023-03-24T07:57:31;27.58;;;5.88;;
23988;SDS011;12202;52.136;5.592;2023-03-24T08:00:01;31.63;;;6.10;;
23988;SDS011;12202;52.136;5.592;2023-03-24T08:02:30;27.15;;;6.55;;
23988;SDS011;12202;52.136;5.592;2023-03-24T08:04:56;24.83;;;5.03;;
23988;SDS011;12202;52.136;5.592;2023-03-24T08:07:23;36.67;;;6.88;;
23988;SDS011;12202;52.136;5.592;2023-03-24T08:09:49;34.72;;;6.68;;
23988;SDS011;12202;52.136;5.592;2023-03-24T08:12:15;22.95;;;5.75;;
23988;SDS011;12202;52.136;5.592;2023-03-24T08:14:41;31.05;;;5.97;;
23988;SDS011;12202;52.136;5.592;2023-03-24T08:17:07;26.17;;;6.00;;
23988;SDS011;12202;52.136;5.592;2023-03-24T08:19:33;34.20;;;5.03;;
23988;SDS011;12202;52.136;5.592;2023-03-24T08:21:59;25.23;;;7.35;;
23988;SDS011;12202;52.136;5.592;2023-03-24T08:24:26;27.52;;;5.30;;
23988;SDS011;12202;52.136;5.592;2023-03-24T08:26:52;26.23;;;5.43;;
23988;SDS011;12202;52.136;5.592;2023-03-24T08:29:22;23.02;;;4.68;;
23988;SDS011;12202;52.136;5.592;2023-03-24T08:31:48;26.83;;;4.93;;
23988;SDS011;12202;52.136;5.592;2023-03-24T08:34:14;28.00;;;5.60;;
23988;SDS011;12202;52.136;5.592;2023-03-24T08:36:40;32.70;;;6.22;;
23988;SDS011;12202;52.136;5.592;2023-03-24T08:39:06;25.33;;;5.20;;
23988;SDS011;12202;52.136;5.592;2023-03-24T08:41:33;31.38;;;4.97;;
23988;SDS011;12202;52.136;5.592;2023-03-24T08:44:00;22.33;;;4.32;;
23988;SDS011;12202;52.136;5.592;2023-03-24T08:46:30;27.65;;;4.90;;
23988;SDS011;12202;52.136;5.592;2023-03-24T08:48:57;30.35;;;6.03;;
23988;SDS011;12202;52.136;5.592;2023-03-24T08:51:23;22.40;;;5.45;;
23988;SDS011;12202;52.136;5.592;2023-03-24T08:53:49;29.70;;;6.82;;
23988;SDS011;12202;52.136;5.592;2023-03-24T08:56:16;29.75;;;5.75;;
23988;SDS011;12202;52.136;5.592;2023-03-24T08:58:42;27.45;;;4.75;;
23988;SDS011;12202;52.136;5.592;2023-03-24T09:01:08;33.05;;;5.40;;
23988;SDS011;12202;52.136;5.592;2023-03-24T09:03:34;26.90;;;5.68;;
23988;SDS011;12202;52.136;5.592;2023-03-24T09:06:03;22.98;;;4.72;;
23988;SDS011;12202;52.136;5.592;2023-03-24T09:08:30;25.05;;;5.00;;
23988;SDS011;12202;52.136;5.592;2023-03-24T09:10:56;19.60;;;5.15;;
23988;SDS011;12202;52.136;5.592;2023-03-24T09:13:22;19.48;;;4.60;;
23988;SDS011;12202;52.136;5.592;2023-03-24T09:15:49;26.70;;;5.80;;
23988;SDS011;12202;52.136;5.592;2023-03-24T09:18:16;18.15;;;4.18;;
23988;SDS011;12202;52.136;5.592;2023-03-24T09:20:42;24.27;;;5.18;;
23988;SDS011;12202;52.136;5.592;2023-03-24T09:23:08;28.85;;;5.03;;
23988;SDS011;12202;52.136;5.592;2023-03-24T09:25:35;24.05;;;4.93;;
23988;SDS011;12202;52.136;5.592;2023-03-24T09:28:01;27.73;;;5.03;;
23988;SDS011;12202;52.136;5.592;2023-03-24T09:30:27;22.80;;;4.72;;
23988;SDS011;12202;52.136;5.592;2023-03-24T09:32:53;23.48;;;4.55;;
23988;SDS011;12202;52.136;5.592;2023-03-24T09:35:22;29.90;;;5.35;;
23988;SDS011;12202;52.136;5.592;2023-03-24T09:37:48;26.98;;;5.45;;
23988;SDS011;12202;52.136;5.592;2023-03-24T09:40:25;27.83;;;5.78;;
23988;SDS011;12202;52.136;5.592;2023-03-24T09:45:28;25.95;;;4.60;;
23988;SDS011;12202;52.136;5.592;2023-03-24T09:48:02;28.13;;;5.40;;
23988;SDS011;12202;52.136;5.592;2023-03-24T09:50:33;14.50;;;4.35;;
23988;SDS011;12202;52.136;5.592;2023-03-24T09:53:06;17.55;;;5.22;;
23988;SDS011;12202;52.136;5.592;2023-03-24T09:55:32;25.98;;;5.28;;
23988;SDS011;12202;52.136;5.592;2023-03-24T09:58:03;25.65;;;5.18;;
23988;SDS011;12202;52.136;5.592;2023-03-24T10:00:32;24.77;;;5.70;;
23988;SDS011;12202;52.136;5.592;2023-03-24T10:03:01;25.00;;;5.18;;
23988;SDS011;12202;52.136;5.592;2023-03-24T10:05:29;17.00;;;4.68;;
23988;SDS011;12202;52.136;5.592;2023-03-24T10:08:17;17.80;;;3.55;;
23988;SDS011;12202;52.136;5.592;2023-03-24T10:10:58;15.68;;;3.78;;
23988;SDS011;12202;52.136;5.592;2023-03-24T10:18:57;21.52;;;3.38;;
23988;SDS011;12202;52.136;5.592;2023-03-24T10:21:26;19.38;;;4.20;;
23988;SDS011;12202;52.136;5.592;2023-03-24T10:23:58;19.95;;;3.10;;
23988;SDS011;12202;52.136;5.592;2023-03-24T10:26:34;20.88;;;3.83;;
23988;SDS011;12202;52.136;5.592;2023-03-24T10:31:46;22.02;;;4.05;;
23988;SDS011;12202;52.136;5.592;2023-03-24T10:34:17;17.77;;;4.05;;
23988;SDS011;12202;52.136;5.592;2023-03-24T10:36:44;17.60;;;4.18;;
23988;SDS011;12202;52.136;5.592;2023-03-24T10:39:14;12.73;;;3.22;;
23988;SDS011;12202;52.136;5.592;2023-03-24T10:41:40;20.08;;;4.80;;
23988;SDS011;12202;52.136;5.592;2023-03-24T10:44:07;21.50;;;3.70;;
23988;SDS011;12202;52.136;5.592;2023-03-24T10:46:43;21.02;;;3.78;;
23988;SDS011;12202;52.136;5.592;2023-03-24T10:51:41;24.73;;;5.00;;
23988;SDS011;12202;52.136;5.592;2023-03-24T10:56:43;20.85;;;3.92;;
23988;SDS011;12202;52.136;5.592;2023-03-24T10:59:46;27.63;;;4.47;;
23988;SDS011;12202;52.136;5.592;2023-03-24T11:04:38;22.02;;;5.07;;
23988;SDS011;12202;52.136;5.592;2023-03-24T11:07:11;31.17;;;6.00;;
23988;SDS011;12202;52.136;5.592;2023-03-24T11:09:40;16.75;;;4.22;;
23988;SDS011;12202;52.136;5.592;2023-03-24T11:12:19;29.33;;;4.93;;
23988;SDS011;12202;52.136;5.592;2023-03-24T11:14:46;24.85;;;4.75;;
23988;SDS011;12202;52.136;5.592;2023-03-24T11:17:12;16.00;;;3.88;;
23988;SDS011;12202;52.136;5.592;2023-03-24T11:19:49;17.45;;;4.68;;
23988;SDS011;12202;52.136;5.592;2023-03-24T11:22:16;18.45;;;5.00;;
23988;SDS011;12202;52.136;5.592;2023-03-24T11:24:42;22.33;;;3.72;;
23988;SDS011;12202;52.136;5.592;2023-03-24T11:27:08;23.92;;;3.83;;
23988;SDS011;12202;52.136;5.592;2023-03-24T11:29:38;22.10;;;4.25;;
23988;SDS011;12202;52.136;5.592;2023-03-24T11:35:02;24.73;;;4.30;;
23988;SDS011;12202;52.136;5.592;2023-03-24T11:37:32;16.67;;;4.25;;
23988;SDS011;12202;52.136;5.592;2023-03-24T11:42:42;17.98;;;4.07;;
23988;SDS011;12202;52.136;5.592;2023-03-24T11:48:00;16.00;;;3.33;;
23988;SDS011;12202;52.136;5.592;2023-03-24T11:50:27;23.48;;;3.80;;
23988;SDS011;12202;52.136;5.592;2023-03-24T11:53:09;13.57;;;3.55;;
23988;SDS011;12202;52.136;5.592;2023-03-24T11:58:16;16.50;;;3.08;;
23988;SDS011;12202;52.136;5.592;2023-03-24T12:00:53;13.80;;;2.95;;
23988;SDS011;12202;52.136;5.592;2023-03-24T12:08:36;20.63;;;3.80;;
23988;SDS011;12202;52.136;5.592;2023-03-24T12:11:06;12.45;;;3.13;;
23988;SDS011;12202;52.136;5.592;2023-03-24T12:13:37;13.18;;;2.95;;
23988;SDS011;12202;52.136;5.592;2023-03-24T12:21:20;17.58;;;3.38;;
23988;SDS011;12202;52.136;5.592;2023-03-24T12:26:16;14.57;;;3.08;;
23988;SDS011;12202;52.136;5.592;2023-03-24T12:39:01;20.23;;;3.63;;
23988;SDS011;12202;52.136;5.592;2023-03-24T12:44:17;15.10;;;3.50;;
23988;SDS011;12202;52.136;5.592;2023-03-24T12:50:13;15.80;;;3.60;;
23988;SDS011;12202;52.136;5.592;2023-03-24T12:54:58;14.20;;;4.00;;
23988;SDS011;12202;52.136;5.592;2023-03-24T12:57:30;12.75;;;3.08;;
23988;SDS011;12202;52.136;5.592;2023-03-24T12:59:58;13.07;;;3.40;;
23988;SDS011;12202;52.136;5.592;2023-03-24T13:02:28;14.73;;;2.85;;
23988;SDS011;12202;52.136;5.592;2023-03-24T13:04:58;13.32;;;3.15;;
23988;SDS011;12202;52.136;5.592;2023-03-24T13:07:28;14.88;;;2.75;;
23988;SDS011;12202;52.136;5.592;2023-03-24T13:10:02;8.63;;;2.28;;
23988;SDS011;12202;52.136;5.592;2023-03-24T13:17:40;12.32;;;2.45;;
23988;SDS011;12202;52.136;5.592;2023-03-24T13:20:11;9.25;;;2.28;;
23988;SDS011;12202;52.136;5.592;2023-03-24T13:22:38;18.58;;;2.83;;
23988;SDS011;12202;52.136;5.592;2023-03-24T13:25:07;22.45;;;2.90;;
23988;SDS011;12202;52.136;5.592;2023-03-24T13:27:38;14.88;;;2.55;;
23988;SDS011;12202;52.136;5.592;2023-03-24T13:32:33;12.25;;;3.05;;
23988;SDS011;12202;52.136;5.592;2023-03-24T13:37:50;13.85;;;3.63;;
23988;SDS011;12202;52.136;5.592;2023-03-24T13:40:18;15.75;;;3.35;;
23988;SDS011;12202;52.136;5.592;2023-03-24T13:42:58;27.38;;;4.22;;
23988;SDS011;12202;52.136;5.592;2023-03-24T13:50:23;17.15;;;4.70;;
23988;SDS011;12202;52.136;5.592;2023-03-24T13:52:50;17.77;;;4.35;;
23988;SDS011;12202;52.136;5.592;2023-03-24T13:55:20;13.13;;;3.53;;
23988;SDS011;12202;52.136;5.592;2023-03-24T13:57:59;11.40;;;3.55;;
23988;SDS011;12202;52.136;5.592;2023-03-24T14:00:29;19.38;;;4.10;;
23988;SDS011;12202;52.136;5.592;2023-03-24T14:05:34;14.75;;;2.80;;
23988;SDS011;12202;52.136;5.592;2023-03-24T14:13:01;13.30;;;3.08;;
23988;SDS011;12202;52.136;5.592;2023-03-24T14:15:29;19.45;;;3.90;;
23988;SDS011;12202;52.136;5.592;2023-03-24T14:17:57;13.88;;;2.97;;
23988;SDS011;12202;52.136;5.592;2023-03-24T14:20:38;22.20;;;4.50;;
23988;SDS011;12202;52.136;5.592;2023-03-24T14:23:05;12.32;;;2.45;;
23988;SDS011;12202;52.136;5.592;2023-03-24T14:25:44;15.30;;;2.33;;
23988;SDS011;12202;52.136;5.592;2023-03-24T14:28:24;6.35;;;2.25;;
23988;SDS011;12202;52.136;5.592;2023-03-24T14:30:55;11.63;;;2.25;;
23988;SDS011;12202;52.136;5.592;2023-03-24T14:33:24;11.07;;;1.98;;
23988;SDS011;12202;52.136;5.592;2023-03-24T14:35:50;8.80;;;1.83;;
23988;SDS011;12202;52.136;5.592;2023-03-24T14:38:23;9.55;;;1.67;;
23988;SDS011;12202;52.136;5.592;2023-03-24T14:40:57;10.93;;;2.10;;
23988;SDS011;12202;52.136;5.592;2023-03-24T14:48:43;7.95;;;2.38;;
23988;SDS011;12202;52.136;5.592;2023-03-24T14:53:56;3.88;;;1.42;;
23988;SDS011;12202;52.136;5.592;2023-03-24T14:56:22;5.97;;;1.67;;
23988;SDS011;12202;52.136;5.592;2023-03-24T14:58:52;6.05;;;1.33;;
23988;SDS011;12202;52.136;5.592;2023-03-24T15:01:20;9.23;;;1.73;;
23988;SDS011;12202;52.136;5.592;2023-03-24T15:06:16;9.48;;;1.65;;
23988;SDS011;12202;52.136;5.592;2023-03-24T15:08:43;7.65;;;1.73;;
23988;SDS011;12202;52.136;5.592;2023-03-24T15:11:09;10.65;;;2.00;;
23988;SDS011;12202;52.136;5.592;2023-03-24T15:21:19;12.20;;;2.17;;
23988;SDS011;12202;52.136;5.592;2023-03-24T15:23:47;9.57;;;2.00;;
23988;SDS011;12202;52.136;5.592;2023-03-24T15:26:13;12.75;;;2.65;;
23988;SDS011;12202;52.136;5.592;2023-03-24T15:28:39;10.00;;;2.47;;
23988;SDS011;12202;52.136;5.592;2023-03-24T15:31:13;25.17;;;4.10;;
23988;SDS011;12202;52.136;5.592;2023-03-24T15:33:40;17.33;;;2.70;;
23988;SDS011;12202;52.136;5.592;2023-03-24T15:36:19;13.73;;;2.33;;
23988;SDS011;12202;52.136;5.592;2023-03-24T15:38:46;18.35;;;2.97;;
23988;SDS011;12202;52.136;5.592;2023-03-24T15:41:14;11.50;;;2.05;;
23988;SDS011;12202;52.136;5.592;2023-03-24T15:43:44;17.05;;;2.85;;
23988;SDS011;12202;52.136;5.592;2023-03-24T15:48:48;12.13;;;2.35;;
23988;SDS011;12202;52.136;5.592;2023-03-24T15:51:14;13.75;;;2.67;;
23988;SDS011;12202;52.136;5.592;2023-03-24T15:58:50;9.57;;;3.00;;
23988;SDS011;12202;52.136;5.592;2023-03-24T16:01:18;14.93;;;2.70;;
23988;SDS011;12202;52.136;5.592;2023-03-24T16:03:45;12.70;;;2.30;;
23988;SDS011;12202;52.136;5.592;2023-03-24T16:06:15;14.35;;;2.85;;
23988;SDS011;12202;52.136;5.592;2023-03-24T16:08:50;13.88;;;2.63;;
23988;SDS011;12202;52.136;5.592;2023-03-24T16:11:16;17.42;;;4.00;;
23988;SDS011;12202;52.136;5.592;2023-03-24T16:13:42;19.10;;;2.47;;
23988;SDS011;12202;52.136;5.592;2023-03-24T16:18:42;13.40;;;2.22;;
23988;SDS011;12202;52.136;5.592;2023-03-24T16:21:19;18.35;;;3.10;;
23988;SDS011;12202;52.136;5.592;2023-03-24T16:23:46;18.60;;;2.90;;
23988;SDS011;12202;52.136;5.592;2023-03-24T16:26:12;14.93;;;3.38;;
23988;SDS011;12202;52.136;5.592;2023-03-24T16:28:39;17.10;;;2.60;;
23988;SDS011;12202;52.136;5.592;2023-03-24T16:31:05;16.55;;;3.05;;
23988;SDS011;12202;52.136;5.592;2023-03-24T16:33:31;13.90;;;3.13;;
23988;SDS011;12202;52.136;5.592;2023-03-24T16:35:58;16.27;;;3.40;;
23988;SDS011;12202;52.136;5.592;2023-03-24T16:38:24;24.10;;;6.30;;
23988;SDS011;12202;52.136;5.592;2023-03-24T16:40:54;13.90;;;2.83;;
23988;SDS011;12202;52.136;5.592;2023-03-24T16:43:20;11.48;;;3.05;;
23988;SDS011;12202;52.136;5.592;2023-03-24T16:45:47;14.10;;;3.47;;
23988;SDS011;12202;52.136;5.592;2023-03-24T16:48:14;17.92;;;2.90;;
23988;SDS011;12202;52.136;5.592;2023-03-24T16:50:41;17.38;;;3.05;;
23988;SDS011;12202;52.136;5.592;2023-03-24T16:53:07;17.17;;;3.05;;
23988;SDS011;12202;52.136;5.592;2023-03-24T16:55:34;17.90;;;3.50;;
23988;SDS011;12202;52.136;5.592;2023-03-24T16:58:00;23.35;;;5.18;;
23988;SDS011;12202;52.136;5.592;2023-03-24T17:00:26;22.73;;;4.30;;
23988;SDS011;12202;52.136;5.592;2023-03-24T17:02:53;21.50;;;4.00;;
23988;SDS011;12202;52.136;5.592;2023-03-24T17:05:21;24.55;;;3.75;;
23988;SDS011;12202;52.136;5.592;2023-03-24T17:07:48;17.27;;;2.90;;
23988;SDS011;12202;52.136;5.592;2023-03-24T17:10:15;18.77;;;3.80;;
23988;SDS011;12202;52.136;5.592;2023-03-24T17:12:41;11.07;;;2.92;;
23988;SDS011;12202;52.136;5.592;2023-03-24T17:15:13;28.08;;;4.05;;